TimeCST,TemperatureF,Dew PointF,Humidity,Sea Level PressureIn,VisibilityMPH,Wind Direction,Wind SpeedMPH,Gust SpeedMPH,PrecipitationIn,Events,Conditions,WindDirDegrees,DateUTC
12:00 AM,60.8,57.2,88,29.97,9.0,WSW,10.4,-,0.00,,Overcast,240,2013-02-11 06:00:00
12:10 AM,60.8,57.2,88,29.99,10.0,WSW,9.2,-,0.00,,Overcast,240,2013-02-11 06:10:00
12:24 AM,60.8,57.2,88,29.99,10.0,WSW,11.5,-,0.00,,Overcast,240,2013-02-11 06:24:00
12:53 AM,61.0,55.9,83,30.00,10.0,SW,11.5,-,0.00,,Overcast,230,2013-02-11 06:53:00
1:37 AM,60.8,55.4,82,30.02,10.0,WSW,8.1,-,N/A,,Overcast,240,2013-02-11 07:37:00
1:53 AM,60.1,55.9,86,30.01,10.0,WSW,6.9,-,N/A,,Overcast,240,2013-02-11 07:53:00
2:22 AM,60.8,55.4,82,30.02,10.0,SW,6.9,-,N/A,,Overcast,230,2013-02-11 08:22:00
2:43 AM,59.0,55.4,88,30.02,10.0,WSW,4.6,-,N/A,,Overcast,240,2013-02-11 08:43:00
2:53 AM,59.0,55.0,87,30.02,10.0,West,6.9,-,N/A,,Overcast,260,2013-02-11 08:53:00
3:53 AM,57.9,54.0,87,30.02,10.0,West,8.1,-,N/A,,Overcast,280,2013-02-11 09:53:00
4:53 AM,57.0,51.1,81,30.04,10.0,WNW,8.1,-,N/A,,Overcast,290,2013-02-11 10:53:00
5:53 AM,55.0,46.9,74,30.08,10.0,West,4.6,-,N/A,,Partly Cloudy,280,2013-02-11 11:53:00
6:53 AM,54.0,44.1,69,30.10,10.0,NW,3.5,-,N/A,,Clear,310,2013-02-11 12:53:00
7:53 AM,53.1,43.0,69,30.12,10.0,WNW,5.8,-,N/A,,Clear,300,2013-02-11 13:53:00
8:53 AM,54.0,39.9,59,30.15,10.0,WNW,8.1,-,N/A,,Clear,300,2013-02-11 14:53:00
9:53 AM,53.1,36.0,52,30.15,10.0,WNW,6.9,-,N/A,,Clear,300,2013-02-11 15:53:00
10:53 AM,52.0,34.0,50,30.18,10.0,WNW,6.9,-,N/A,,Clear,300,2013-02-11 16:53:00
11:53 AM,52.0,34.0,50,30.15,10.0,WNW,4.6,-,N/A,,Partly Cloudy,290,2013-02-11 17:53:00
12:53 PM,52.0,35.1,53,30.17,10.0,WNW,8.1,-,N/A,,Clear,300,2013-02-11 18:53:00
1:53 PM,52.0,34.0,50,30.14,10.0,WNW,5.8,-,N/A,,Clear,300,2013-02-11 19:53:00
2:53 PM,54.0,34.0,47,30.13,10.0,WNW,3.5,-,N/A,,Clear,300,2013-02-11 20:53:00
3:53 PM,53.1,34.0,48,30.12,10.0,Calm,Calm,-,N/A,,Clear,0,2013-02-11 21:53:00
4:53 PM,52.0,34.0,50,30.12,10.0,Calm,Calm,-,N/A,,Clear,0,2013-02-11 22:53:00
5:53 PM,50.0,37.9,63,30.13,10.0,Calm,Calm,-,N/A,,Clear,0,2013-02-11 23:53:00
6:53 PM,50.0,37.0,61,30.12,10.0,Calm,Calm,-,N/A,,Clear,0,2013-02-12 00:53:00
7:53 PM,46.9,39.9,77,30.13,10.0,Calm,Calm,-,N/A,,Clear,0,2013-02-12 01:53:00
8:53 PM,46.9,37.9,71,30.15,10.0,Calm,Calm,-,N/A,,Mostly Cloudy,0,2013-02-12 02:53:00
9:53 PM,46.0,37.9,73,30.16,10.0,Calm,Calm,-,N/A,,Clear,0,2013-02-12 03:53:00
10:53 PM,45.0,37.9,76,30.18,10.0,SSW,4.6,-,N/A,,Clear,200,2013-02-12 04:53:00
11:53 PM,45.0,39.0,80,30.16,10.0,Calm,Calm,-,N/A,,Partly Cloudy,0,2013-02-12 05:53:00